Time;durP1;ratioP1;P1;durP2;ratioP2;P2;SDS_P1;SDS_P2;PMS_P1;PMS_P2;Temp;Humidity;BMP_temperature;BMP_pressure;BME280_temperature;BME280_humidity;BME280_pressure;Samples;Min_cycle;Max_cycle;Signal;HPM_P1;HPM_P2
2023/07/11 00:00:59;;;;;;;11.10;6.40;;;691.80;1971.20;;;;;;5081911;28;20063;-72
2023/07/11 00:03:25;;;;;;;11.68;6.53;;;691.90;1945.60;;;;;;5084915;28;20501;-70
2023/07/11 00:05:59;;;;;;;16.05;7.05;;;692.00;1920.00;;;;;;5088912;28;20062;-71
2023/07/11 00:08:25;;;;;;;13.20;6.15;;;692.00;1894.40;;;;;;5094902;28;20035;-72
2023/07/11 00:10:51;;;;;;;12.88;5.82;;;692.10;1894.40;;;;;;5092128;28;20020;-70
2023/07/11 00:13:16;;;;;;;16.30;6.05;;;692.10;1868.80;;;;;;5095710;28;20028;-71
2023/07/11 00:15:42;;;;;;;10.35;5.88;;;692.10;1868.80;;;;;;5107590;28;20588;-71
2023/07/11 00:18:08;;;;;;;8.57;5.65;;;692.10;1894.40;;;;;;5094302;28;20470;-77
2023/07/11 00:20:33;;;;;;;9.10;6.18;;;692.10;1868.80;;;;;;5102263;28;20023;-72
2023/07/11 00:22:59;;;;;;;11.23;6.55;;;692.10;1894.40;;;;;;5100720;28;20354;-72
2023/07/11 00:25:25;;;;;;;10.00;6.05;;;692.10;1894.40;;;;;;5102189;28;20516;-73
2023/07/11 00:27:50;;;;;;;13.48;6.68;;;692.10;1920.00;;;;;;5114023;28;20019;-71
2023/07/11 00:30:16;;;;;;;8.77;5.78;;;692.10;1920.00;;;;;;5094478;28;20439;-71
2023/07/11 00:32:42;;;;;;;10.85;6.05;;;692.10;1945.60;;;;;;5108874;28;20031;-73
2023/07/11 00:35:07;;;;;;;7.78;6.18;;;692.10;1945.60;;;;;;5107032;28;20060;-78
2023/07/11 00:37:34;;;;;;;8.70;5.88;;;692.00;1996.80;;;;;;5093612;28;20028;-71
2023/07/11 00:40:00;;;;;;;8.40;5.53;;;691.80;2048.00;;;;;;5094576;28;20136;-71
2023/07/11 00:42:25;;;;;;;9.65;6.07;;;691.70;2073.60;;;;;;5094719;28;20481;-74
2023/07/11 00:44:54;;;;;;;12.95;6.40;;;691.60;2099.20;;;;;;5107566;28;20104;-71
2023/07/11 00:47:22;;;;;;;13.70;6.80;;;691.60;2099.20;;;;;;5094327;28;20024;-70
2023/07/11 00:49:51;;;;;;;13.20;6.88;;;691.70;2099.20;;;;;;5094214;28;20060;-71
2023/07/11 00:52:18;;;;;;;12.65;6.22;;;691.40;2124.80;;;;;;5107490;28;20512;-71
2023/07/11 00:54:50;;;;;;;8.30;6.38;;;691.40;2150.40;;;;;;5094179;28;20020;-71
2023/07/11 00:57:18;;;;;;;10.40;7.63;;;691.40;2150.40;;;;;;5110062;28;20101;-71
2023/07/11 00:59:45;;;;;;;13.65;6.68;;;691.30;2201.60;;;;;;5104587;28;20024;-71
2023/07/11 01:02:25;;;;;;;8.63;6.45;;;691.20;2176.00;;;;;;5107555;28;20050;-78
2023/07/11 01:04:51;;;;;;;10.90;6.60;;;691.30;2176.00;;;;;;5094007;28;20031;-71
2023/07/11 01:07:21;;;;;;;9.30;6.28;;;691.20;2176.00;;;;;;5099807;28;20036;-70
2023/07/11 01:09:47;;;;;;;8.60;6.47;;;691.20;2176.00;;;;;;5094046;28;20470;-72
2023/07/11 01:12:15;;;;;;;11.00;6.32;;;691.30;2176.00;;;;;;5093502;28;20024;-72
2023/07/11 01:14:43;;;;;;;10.82;6.55;;;691.20;2201.60;;;;;;5094010;28;20100;-71
2023/07/11 01:17:30;;;;;;;12.90;6.50;;;666.50;2201.60;;;;;;5079964;28;20035;-70
2023/07/11 01:19:58;;;;;;;11.20;6.53;;;691.30;2227.20;;;;;;5095147;28;20392;-71
2023/07/11 01:22:25;;;;;;;10.52;6.85;;;691.30;2227.20;;;;;;5103795;28;20037;-71
2023/07/11 01:24:52;;;;;;;10.90;6.35;;;691.30;2252.80;;;;;;5097245;28;20019;-71
2023/07/11 01:27:20;;;;;;;12.18;6.60;;;691.30;2278.40;;;;;;5113634;28;20112;-71
2023/07/11 01:29:49;;;;;;;11.73;6.82;;;691.30;2304.00;;;;;;5114239;28;20365;-71
2023/07/11 01:32:15;;;;;;;10.02;6.50;;;691.20;2329.60;;;;;;5114073;28;20028;-70
2023/07/11 01:34:41;;;;;;;10.80;6.53;;;666.50;2355.20;;;;;;5113451;28;20384;-71
2023/07/11 01:37:07;;;;;;;10.93;6.68;;;666.50;2355.20;;;;;;5113775;28;20111;-71
2023/07/11 01:39:33;;;;;;;12.57;7.70;;;666.50;2329.60;;;;;;5094488;28;20347;-71
2023/07/11 01:41:59;;;;;;;9.82;6.13;;;666.50;2304.00;;;;;;5105689;28;20047;-71
2023/07/11 01:44:25;;;;;;;10.20;6.60;;;666.40;2278.40;;;;;;5107866;28;20024;-70
2023/07/11 01:46:51;;;;;;;9.00;6.40;;;666.40;2278.40;;;;;;5093402;28;20373;-74
2023/07/11 01:49:17;;;;;;;8.80;6.85;;;666.50;2278.40;;;;;;5106678;28;20072;-70
2023/07/11 01:51:46;;;;;;;15.32;6.72;;;666.30;2278.40;;;;;;5105784;28;20023;-71
2023/07/11 01:54:12;;;;;;;12.68;6.75;;;666.30;2278.40;;;;;;5093413;28;20538;-70
2023/07/11 01:56:38;;;;;;;16.02;6.82;;;666.30;2278.40;;;;;;5105971;28;20028;-71
2023/07/11 01:59:04;;;;;;;11.88;6.63;;;666.20;2252.80;;;;;;5113344;28;20107;-71
2023/07/11 02:01:30;;;;;;;12.05;7.15;;;666.20;2252.80;;;;;;5100321;28;20032;-71
2023/07/11 02:03:55;;;;;;;9.38;6.28;;;666.20;2252.80;;;;;;5099238;28;20422;-71
2023/07/11 02:06:21;;;;;;;8.77;6.47;;;666.30;2227.20;;;;;;5113086;28;20050;-71
2023/07/11 02:08:47;;;;;;;9.10;6.57;;;666.20;2227.20;;;;;;5113026;28;20057;-72
2023/07/11 02:11:13;;;;;;;9.10;6.45;;;666.00;2252.80;;;;;;5101863;28;20484;-71
2023/07/11 02:13:40;;;;;;;11.45;6.47;;;666.00;2252.80;;;;;;5106285;28;20099;-71
2023/07/11 02:16:06;;;;;;;11.57;7.78;;;666.00;2252.80;;;;;;5104052;28;20124;-71
2023/07/11 02:18:32;;;;;;;8.75;6.20;;;666.00;2278.40;;;;;;5108596;28;20016;-73
2023/07/11 02:20:58;;;;;;;10.23;6.28;;;666.00;2278.40;;;;;;5104267;28;20487;-72
2023/07/11 02:23:24;;;;;;;18.38;7.72;;;666.00;2304.00;;;;;;5099580;28;20069;-71
2023/07/11 02:25:53;;;;;;;10.05;6.93;;;666.00;2304.00;;;;;;5113137;28;20037;-74
2023/07/11 02:28:19;;;;;;;10.00;7.38;;;665.90;2329.60;;;;;;5108419;28;20493;-72
2023/07/11 02:30:45;;;;;;;11.88;6.45;;;665.90;2329.60;;;;;;5092697;28;20028;-71
2023/07/11 02:33:11;;;;;;;10.38;6.88;;;665.90;2355.20;;;;;;5097734;28;20532;-71
2023/07/11 02:35:36;;;;;;;13.55;6.78;;;665.90;2380.80;;;;;;5101246;28;20511;-71
2023/07/11 02:38:02;;;;;;;13.20;6.35;;;665.90;2406.40;;;;;;5102213;28;20413;-71
2023/07/11 02:40:28;;;;;;;10.50;6.60;;;665.90;2432.00;;;;;;5114757;28;20020;-71
2023/07/11 02:42:53;;;;;;;12.38;7.05;;;665.90;2432.00;;;;;;5096752;28;20024;-71
2023/07/11 02:45:20;;;;;;;11.88;6.43;;;665.70;2432.00;;;;;;5096580;28;20028;-72
2023/07/11 02:47:45;;;;;;;10.80;6.93;;;665.70;2432.00;;;;;;5105036;28;20015;-71
2023/07/11 02:50:11;;;;;;;10.60;7.30;;;665.70;2432.00;;;;;;5102593;28;20077;-72
2023/07/11 02:52:38;;;;;;;11.77;7.35;;;665.60;2432.00;;;;;;5108439;28;20028;-71
2023/07/11 02:55:05;;;;;;;10.80;7.30;;;665.60;2432.00;;;;;;5111682;28;20016;-71
2023/07/11 02:57:30;;;;;;;15.15;6.22;;;640.90;2432.00;;;;;;5108307;28;20028;-71
2023/07/11 02:59:56;;;;;;;11.75;7.30;;;640.90;2432.00;;;;;;5095823;28;20017;-72
2023/07/11 03:02:22;;;;;;;11.45;7.78;;;640.90;2432.00;;;;;;5104641;28;20039;-73
2023/07/11 03:04:48;;;;;;;9.82;7.57;;;640.90;2432.00;;;;;;5114875;28;20039;-71
2023/07/11 03:07:14;;;;;;;11.27;7.78;;;640.70;2432.00;;;;;;5100473;28;20047;-71
2023/07/11 03:09:41;;;;;;;10.02;7.10;;;640.70;2432.00;;;;;;5105125;28;20063;-72
2023/07/11 03:12:07;;;;;;;10.85;7.18;;;640.70;2432.00;;;;;;5096028;28;20077;-71
2023/07/11 03:14:33;;;;;;;13.13;7.18;;;640.70;2432.00;;;;;;5108210;28;20023;-74
2023/07/11 03:16:59;;;;;;;14.93;7.55;;;640.70;2432.00;;;;;;5102522;28;20035;-71
2023/07/11 03:19:24;;;;;;;11.45;6.75;;;640.70;2432.00;;;;;;5116473;27;20089;-72
2023/07/11 03:21:50;;;;;;;11.57;7.28;;;640.70;2432.00;;;;;;5097055;28;20095;-71
2023/07/11 03:24:16;;;;;;;9.55;7.30;;;640.90;2432.00;;;;;;5095923;28;20043;-71
2023/07/11 03:26:46;;;;;;;13.25;7.70;;;640.70;2432.00;;;;;;5115010;28;20088;-72
2023/07/11 03:29:13;;;;;;;14.18;7.47;;;640.70;2432.00;;;;;;5090318;28;20016;-70
2023/07/11 03:31:39;;;;;;;11.65;7.63;;;640.70;2432.00;;;;;;5101541;28;20015;-71
2023/07/11 03:34:05;;;;;;;16.67;7.00;;;640.60;2432.00;;;;;;5116247;27;20071;-71
2023/07/11 03:36:31;;;;;;;9.82;7.10;;;640.60;2432.00;;;;;;5107817;28;20046;-70
2023/07/11 03:38:57;;;;;;;12.93;7.25;;;640.60;2432.00;;;;;;5108954;28;20032;-70
2023/07/11 03:41:22;;;;;;;11.63;7.20;;;640.60;2432.00;;;;;;5102429;28;20027;-71
2023/07/11 03:43:48;;;;;;;13.38;7.82;;;640.70;2432.00;;;;;;5102407;28;20028;-71
2023/07/11 03:46:14;;;;;;;15.63;7.63;;;640.60;2432.00;;;;;;5108645;28;20024;-71
2023/07/11 03:48:39;;;;;;;11.70;7.55;;;640.60;2432.00;;;;;;5094837;28;20077;-71
2023/07/11 03:51:05;;;;;;;11.57;7.88;;;640.60;2432.00;;;;;;5101619;28;20119;-72
2023/07/11 03:53:31;;;;;;;10.52;6.60;;;640.50;2432.00;;;;;;5102586;28;20431;-72
2023/07/11 03:55:56;;;;;;;11.30;7.95;;;640.60;2432.00;;;;;;5108887;28;20103;-70
2023/07/11 03:58:24;;;;;;;9.45;7.10;;;640.50;2432.00;;;;;;5080664;28;20131;-71
2023/07/11 04:00:50;;;;;;;18.13;8.68;;;640.60;2432.00;;;;;;5088377;28;20016;-78
2023/07/11 04:03:16;;;;;;;19.80;7.35;;;640.60;2432.00;;;;;;5101960;28;20107;-77
2023/07/11 04:05:42;;;;;;;17.67;7.85;;;640.60;2432.00;;;;;;5101432;28;20043;-71
2023/07/11 04:08:08;;;;;;;11.35;7.85;;;640.60;2432.00;;;;;;5114144;28;20024;-70
2023/07/11 04:10:35;;;;;;;9.85;7.45;;;640.60;2432.00;;;;;;5109649;28;20035;-78
2023/07/11 04:13:01;;;;;;;10.52;6.75;;;640.60;2432.00;;;;;;5095146;28;20024;-77
2023/07/11 04:15:26;;;;;;;11.65;7.78;;;640.60;2432.00;;;;;;5113849;28;20585;-71
2023/07/11 04:17:52;;;;;;;10.55;7.45;;;640.70;2432.00;;;;;;5102584;28;20032;-74
2023/07/11 04:20:18;;;;;;;11.98;8.00;;;640.60;2432.00;;;;;;5094509;28;20019;-71
2023/07/11 04:22:43;;;;;;;11.68;7.85;;;640.60;2432.00;;;;;;5107054;28;20028;-79
2023/07/11 04:25:09;;;;;;;11.68;7.68;;;640.50;2432.00;;;;;;5115328;28;20012;-71
2023/07/11 04:27:35;;;;;;;13.85;8.18;;;640.50;2432.00;;;;;;5102703;28;20024;-70
2023/07/11 04:30:01;;;;;;;13.18;8.23;;;640.50;2432.00;;;;;;5108318;28;20024;-73
2023/07/11 04:32:28;;;;;;;11.73;8.43;;;640.50;2432.00;;;;;;5094517;28;20051;-70
2023/07/11 04:34:54;;;;;;;14.60;9.07;;;640.50;2432.00;;;;;;5108049;28;20028;-71
2023/07/11 04:37:19;;;;;;;13.93;9.48;;;640.50;2432.00;;;;;;5094404;28;20034;-71
2023/07/11 04:39:45;;;;;;;15.65;9.35;;;640.50;2432.00;;;;;;5094318;28;20473;-71
2023/07/11 04:42:11;;;;;;;13.27;8.82;;;640.50;2432.00;;;;;;5107253;28;20055;-73
2023/07/11 04:44:37;;;;;;;19.20;9.63;;;640.50;2432.00;;;;;;5089086;28;20040;-78
2023/07/11 04:47:03;;;;;;;13.82;10.15;;;640.50;2432.00;;;;;;5086846;28;20082;-78
2023/07/11 04:49:29;;;;;;;14.35;9.45;;;640.50;2432.00;;;;;;5113780;28;20063;-70
2023/07/11 04:51:55;;;;;;;14.90;10.38;;;640.50;2432.00;;;;;;5114844;28;20076;-77
2023/07/11 04:54:21;;;;;;;13.50;9.15;;;640.40;2432.00;;;;;;5114658;28;20007;-70
2023/07/11 04:56:55;;;;;;;16.63;10.30;;;640.50;2432.00;;;;;;5114467;28;20039;-70
2023/07/11 04:59:20;;;;;;;13.35;10.40;;;640.50;2432.00;;;;;;5106913;28;20485;-70
2023/07/11 05:01:46;;;;;;;14.90;10.20;;;640.40;2432.00;;;;;;5106706;28;20027;-70
2023/07/11 05:04:12;;;;;;;15.68;10.80;;;640.50;2432.00;;;;;;5093845;28;20020;-70
2023/07/11 05:06:37;;;;;;;20.55;11.45;;;640.60;2432.00;;;;;;5093418;28;20055;-70
2023/07/11 05:09:03;;;;;;;20.60;10.55;;;640.50;2432.00;;;;;;5106650;28;20554;-69
2023/07/11 05:11:29;;;;;;;23.15;11.80;;;640.60;2432.00;;;;;;5082523;28;20028;-70
2023/07/11 05:13:55;;;;;;;14.00;10.90;;;640.60;2432.00;;;;;;5084949;28;20080;-71
2023/07/11 05:16:24;;;;;;;17.20;11.30;;;640.60;2432.00;;;;;;5080380;28;20119;-70
2023/07/11 05:18:50;;;;;;;19.25;10.13;;;640.80;2432.00;;;;;;5080446;28;20016;-71
2023/07/11 05:21:18;;;;;;;14.90;10.65;;;640.80;2432.00;;;;;;5085497;28;20521;-71
2023/07/11 05:23:45;;;;;;;19.40;10.25;;;640.90;2432.00;;;;;;5079703;28;20097;-70
2023/07/11 05:26:11;;;;;;;16.50;10.05;;;640.90;2432.00;;;;;;5086304;28;20024;-70
2023/07/11 05:28:37;;;;;;;17.02;9.82;;;665.60;2432.00;;;;;;5080424;28;20016;-70
2023/07/11 05:31:05;;;;;;;13.20;9.63;;;665.80;2432.00;;;;;;5078217;28;20024;-71
2023/07/11 05:33:31;;;;;;;15.40;10.63;;;665.90;2432.00;;;;;;5089036;28;20048;-74
2023/07/11 05:38:49;;;;;;;13.20;9.95;;;665.90;2432.00;;;;;;5080272;28;20072;-72
2023/07/11 05:41:15;;;;;;;24.30;11.13;;;666.10;2432.00;;;;;;5082379;28;20032;-71
2023/07/11 05:43:41;;;;;;;16.20;10.07;;;666.10;2432.00;;;;;;5084284;28;20024;-71
2023/07/11 05:46:07;;;;;;;19.15;10.10;;;666.10;2432.00;;;;;;5078977;28;20051;-71
2023/07/11 05:48:33;;;;;;;17.80;9.65;;;666.20;2432.00;;;;;;5083071;28;20437;-77
2023/07/11 05:51:04;;;;;;;14.27;9.75;;;666.40;2432.00;;;;;;5082102;28;20032;-70
2023/07/11 05:53:30;;;;;;;12.82;9.05;;;666.50;2432.00;;;;;;5080086;28;20027;-71
2023/07/11 05:55:57;;;;;;;13.05;9.45;;;666.50;2432.00;;;;;;5082171;28;20021;-71
2023/07/11 05:58:24;;;;;;;13.80;8.77;;;691.20;2432.00;;;;;;5081916;28;20489;-71
2023/07/11 06:00:52;;;;;;;17.05;9.35;;;691.30;2432.00;;;;;;5085497;28;20020;-71
2023/07/11 06:03:18;;;;;;;11.23;8.45;;;691.40;2432.00;;;;;;5082120;28;20021;-74
2023/07/11 06:05:44;;;;;;;14.10;8.35;;;691.50;2432.00;;;;;;5077682;28;20056;-70
2023/07/11 06:08:12;;;;;;;13.82;8.25;;;691.60;2432.00;;;;;;5080381;28;20381;-70
2023/07/11 06:10:38;;;;;;;9.80;8.13;;;691.60;2432.00;;;;;;5084176;28;20541;-71
2023/07/11 06:13:04;;;;;;;12.23;8.38;;;691.70;2432.00;;;;;;5081248;28;20034;-74
2023/07/11 06:15:30;;;;;;;13.40;8.70;;;691.80;2432.00;;;;;;5085594;28;20516;-70
2023/07/11 06:17:56;;;;;;;14.93;9.18;;;691.80;2432.00;;;;;;5081187;28;20051;-70
2023/07/11 06:20:23;;;;;;;14.07;8.93;;;691.90;2432.00;;;;;;5080531;28;20466;-70
2023/07/11 06:22:48;;;;;;;13.55;9.00;;;692.00;2432.00;;;;;;5082974;28;20039;-71
2023/07/11 06:25:14;;;;;;;15.02;9.82;;;692.10;2432.00;;;;;;5086423;28;20466;-70
2023/07/11 06:27:40;;;;;;;13.18;8.52;;;716.80;2432.00;;;;;;5088739;28;20024;-71
2023/07/11 06:30:06;;;;;;;12.07;8.30;;;716.80;2432.00;;;;;;5084227;28;20036;-72
2023/07/11 06:32:32;;;;;;;11.68;8.90;;;716.90;2432.00;;;;;;5081034;28;20052;-72
2023/07/11 06:34:57;;;;;;;11.55;8.15;;;716.90;2432.00;;;;;;5082190;28;20036;-70
2023/07/11 06:37:23;;;;;;;13.32;8.18;;;717.10;2432.00;;;;;;5089176;28;20036;-71
2023/07/11 06:39:49;;;;;;;18.05;9.05;;;717.10;2432.00;;;;;;5077514;28;20048;-70
2023/07/11 06:42:15;;;;;;;12.50;8.45;;;717.20;2432.00;;;;;;5079964;28;20032;-71
2023/07/11 06:44:42;;;;;;;18.80;9.50;;;717.20;2432.00;;;;;;5082026;28;20017;-75
2023/07/11 06:47:08;;;;;;;13.80;9.10;;;717.30;2432.00;;;;;;5077613;28;20104;-70
2023/07/11 06:49:34;;;;;;;12.40;8.20;;;717.40;2432.00;;;;;;5081318;28;20382;-71
2023/07/11 06:52:00;;;;;;;14.43;8.40;;;717.50;2432.00;;;;;;5087588;28;20032;-72
2023/07/11 06:54:26;;;;;;;11.60;8.90;;;717.50;2380.80;;;;;;5083199;28;20031;-70
2023/07/11 06:56:54;;;;;;;13.75;8.52;;;717.60;2355.20;;;;;;5092201;28;20044;-74
2023/07/11 06:59:21;;;;;;;10.02;7.60;;;717.70;2355.20;;;;;;5077415;28;20035;-73
2023/07/11 07:01:47;;;;;;;12.95;7.85;;;742.50;2432.00;;;;;;5088443;28;20025;-72
2023/07/11 07:04:14;;;;;;;13.57;8.15;;;742.60;2380.80;;;;;;5084174;28;20078;-72
2023/07/11 07:06:40;;;;;;;10.93;8.27;;;742.70;2329.60;;;;;;5083605;28;20459;-71
2023/07/11 07:09:06;;;;;;;13.23;8.82;;;742.80;2227.20;;;;;;5081041;28;20103;-74
2023/07/11 07:11:35;;;;;;;13.88;8.13;;;742.90;2176.00;;;;;;5080846;28;20033;-75
2023/07/11 07:14:01;;;;;;;11.77;7.97;;;743.00;2150.40;;;;;;5085726;28;20367;-73
2023/07/11 07:16:28;;;;;;;15.18;7.07;;;743.00;2073.60;;;;;;5079524;28;20075;-71
2023/07/11 07:18:54;;;;;;;13.30;7.75;;;743.10;1945.60;;;;;;5081950;28;20493;-75
2023/07/11 07:21:20;;;;;;;10.43;7.10;;;743.30;1996.80;;;;;;5083753;28;20068;-72
2023/07/11 07:23:46;;;;;;;11.35;6.72;;;768.00;1971.20;;;;;;5083342;28;20070;-72
2023/07/11 07:26:11;;;;;;;13.15;7.72;;;768.20;1894.40;;;;;;5087855;28;20462;-72
2023/07/11 07:28:37;;;;;;;10.90;6.95;;;768.40;1817.60;;;;;;5085763;28;20032;-72
2023/07/11 07:31:08;;;;;;;10.65;6.53;;;768.40;1715.20;;;;;;5084526;28;20021;-73
2023/07/11 07:33:34;;;;;;;13.07;6.60;;;768.60;1740.80;;;;;;5083169;28;20029;-71
2023/07/11 07:36:08;;;;;;;10.68;6.45;;;768.90;1740.80;;;;;;5087187;28;20028;-73
2023/07/11 07:38:34;;;;;;;10.63;6.30;;;793.60;1664.00;;;;;;5084909;28;20029;-72
2023/07/11 07:41:05;;;;;;;13.05;7.18;;;793.80;1664.00;;;;;;5080448;28;20032;-71
2023/07/11 07:43:31;;;;;;;9.27;6.70;;;793.90;1638.40;;;;;;5085857;28;20077;-73
2023/07/11 07:45:59;;;;;;;8.77;6.95;;;794.00;1638.40;;;;;;5079255;28;20087;-71
2023/07/11 07:48:25;;;;;;;14.02;5.90;;;794.10;1612.80;;;;;;5080439;28;20039;-74
2023/07/11 07:50:52;;;;;;;12.70;6.55;;;794.20;1612.80;;;;;;5079237;28;20040;-72
2023/07/11 07:53:18;;;;;;;10.38;6.18;;;794.20;1561.60;;;;;;5077384;28;20032;-72
2023/07/11 07:55:44;;;;;;;11.65;6.60;;;794.30;1612.80;;;;;;5086517;28;20028;-74
2023/07/11 07:58:10;;;;;;;10.50;6.38;;;794.40;1587.20;;;;;;5086191;28;20428;-71
2023/07/11 08:00:37;;;;;;;12.05;6.65;;;794.50;1536.00;;;;;;5084004;28;20115;-72
2023/07/11 08:03:03;;;;;;;11.60;7.07;;;794.50;1561.60;;;;;;5080029;28;20077;-74
2023/07/11 08:05:30;;;;;;;8.70;6.47;;;819.30;1536.00;;;;;;5079224;28;20103;-74
2023/07/11 08:07:56;;;;;;;9.23;6.07;;;819.30;1510.40;;;;;;5084447;28;20032;-72
2023/07/11 08:10:22;;;;;;;9.15;6.38;;;819.40;1536.00;;;;;;5084572;28;20100;-72
2023/07/11 08:12:47;;;;;;;10.88;6.38;;;819.30;1510.40;;;;;;5088216;28;20113;-74
2023/07/11 08:15:13;;;;;;;11.43;7.25;;;819.40;1484.80;;;;;;5081918;28;20028;-73
2023/07/11 08:17:42;;;;;;;14.98;6.95;;;819.30;1484.80;;;;;;5078409;28;20440;-72
2023/07/11 08:20:08;;;;;;;10.38;6.82;;;819.50;1484.80;;;;;;5084781;28;20020;-74
2023/07/11 08:22:34;;;;;;;14.45;7.10;;;819.40;1510.40;;;;;;5080708;28;20028;-71
2023/07/11 08:24:59;;;;;;;16.30;6.40;;;819.60;1484.80;;;;;;5079186;28;20036;-72
2023/07/11 08:27:25;;;;;;;15.35;7.13;;;819.60;1510.40;;;;;;5086116;28;20031;-70
2023/07/11 08:29:51;;;;;;;10.25;6.93;;;819.50;1484.80;;;;;;5082379;28;20033;-72
2023/07/11 08:32:18;;;;;;;16.35;7.85;;;819.50;1484.80;;;;;;5085889;28;20055;-73
2023/07/11 08:34:44;;;;;;;13.35;7.45;;;819.60;1484.80;;;;;;5081172;28;20036;-72
2023/07/11 08:37:10;;;;;;;12.65;7.15;;;819.80;1484.80;;;;;;5084554;28;20036;-72
2023/07/11 08:39:37;;;;;;;11.82;6.85;;;819.80;1510.40;;;;;;5085973;28;20111;-71
2023/07/11 08:42:10;;;;;;;14.13;7.20;;;819.80;1484.80;;;;;;5083180;28;20021;-75
2023/07/11 08:44:49;;;;;;;8.60;6.15;;;819.80;1484.80;;;;;;5083924;28;20035;-71
2023/07/11 08:47:30;;;;;;;10.52;5.82;;;819.80;1459.20;;;;;;5083580;28;20039;-72
2023/07/11 08:50:08;;;;;;;8.57;5.93;;;820.00;1382.40;;;;;;5085458;28;20020;-73
2023/07/11 08:52:34;;;;;;;9.18;6.40;;;820.00;1356.80;;;;;;5077249;28;20060;-70
2023/07/11 08:55:05;;;;;;;7.78;6.25;;;820.00;1433.60;;;;;;5080565;28;20051;-72
2023/07/11 08:57:38;;;;;;;10.02;6.55;;;820.00;1408.00;;;;;;5085712;28;20040;-70
2023/07/11 09:00:18;;;;;;;9.57;6.28;;;820.10;1433.60;;;;;;5081673;28;20029;-74
2023/07/11 09:03:04;;;;;;;8.35;5.90;;;844.80;1433.60;;;;;;5086595;28;20028;-70
2023/07/11 09:05:43;;;;;;;12.02;5.63;;;844.90;1408.00;;;;;;5077410;28;20398;-74
2023/07/11 09:08:20;;;;;;;8.63;5.75;;;844.90;1408.00;;;;;;5079183;28;20154;-73
2023/07/11 09:11:06;;;;;;;8.75;6.43;;;845.10;1433.60;;;;;;5078370;28;20063;-70
2023/07/11 09:13:50;;;;;;;8.45;5.00;;;845.20;1433.60;;;;;;5082079;28;20074;-71
2023/07/11 09:16:42;;;;;;;12.55;6.20;;;845.00;1382.40;;;;;;5076024;28;20051;-70
2023/07/11 09:20:03;;;;;;;10.48;6.20;;;844.90;1408.00;;;;;;5078274;28;20021;-71
2023/07/11 09:22:48;;;;;;;11.48;6.03;;;844.90;1408.00;;;;;;5040731;28;20029;-78
2023/07/11 09:25:18;;;;;;;8.95;6.10;;;844.90;1433.60;;;;;;5038616;28;20033;-70
2023/07/11 09:27:52;;;;;;;10.77;6.18;;;845.10;1433.60;;;;;;5044943;28;20523;-72
2023/07/11 09:30:31;;;;;;;10.05;6.32;;;845.20;1459.20;;;;;;5045135;28;20160;-72
2023/07/11 09:33:12;;;;;;;10.00;6.70;;;845.20;1433.60;;;;;;5046811;28;20487;-70
2023/07/11 09:35:38;;;;;;;11.35;6.32;;;845.30;1459.20;;;;;;5044633;28;20514;-72
2023/07/11 09:38:29;;;;;;;9.35;6.85;;;845.40;1408.00;;;;;;5040630;28;20523;-75
2023/07/11 09:41:10;;;;;;;13.23;6.68;;;845.40;1433.60;;;;;;5046676;28;20439;-72
2023/07/11 09:43:36;;;;;;;13.25;7.20;;;845.40;1408.00;;;;;;5044428;28;20049;-70
2023/07/11 09:46:09;;;;;;;10.25;6.10;;;845.60;1433.60;;;;;;5041145;28;20491;-71
2023/07/11 09:48:36;;;;;;;9.68;6.35;;;845.70;1433.60;;;;;;5039857;28;20153;-76
2023/07/11 09:51:30;;;;;;;10.77;6.22;;;845.70;1408.00;;;;;;5038968;28;20545;-71
2023/07/11 09:53:56;;;;;;;9.27;7.05;;;870.50;1408.00;;;;;;5040192;28;20084;-70
2023/07/11 09:56:24;;;;;;;13.00;5.88;;;870.50;1382.40;;;;;;5053517;28;20068;-76
2023/07/11 09:58:59;;;;;;;15.18;6.38;;;870.70;1356.80;;;;;;5084389;28;20100;-74
2023/07/11 10:01:42;;;;;;;8.05;5.75;;;870.80;1331.20;;;;;;5079302;28;20377;-72
2023/07/11 10:04:17;;;;;;;11.70;6.70;;;870.90;1331.20;;;;;;5084340;28;20029;-74
2023/07/11 10:06:52;;;;;;;10.40;6.00;;;871.10;1331.20;;;;;;5082770;28;20470;-75
2023/07/11 10:09:30;;;;;;;13.90;6.25;;;871.10;1331.20;;;;;;5080762;28;20292;-75
2023/07/11 10:12:02;;;;;;;12.25;5.72;;;871.10;1331.20;;;;;;5086511;28;20024;-73
2023/07/11 10:14:35;;;;;;;14.13;6.95;;;871.20;1331.20;;;;;;5083840;28;20390;-72
2023/07/11 10:17:18;;;;;;;11.25;6.15;;;871.30;1331.20;;;;;;5076777;28;20032;-72
2023/07/11 10:19:45;;;;;;;10.52;6.18;;;871.30;1356.80;;;;;;5084059;28;20024;-73
2023/07/11 10:22:18;;;;;;;17.40;6.88;;;896.20;1459.20;;;;;;5077288;28;20490;-73
2023/07/11 10:24:44;;;;;;;10.90;6.85;;;896.10;1356.80;;;;;;5088640;28;20021;-71
2023/07/11 10:27:14;;;;;;;15.73;7.18;;;896.30;1305.60;;;;;;5082667;28;20024;-75
2023/07/11 10:29:50;;;;;;;14.25;6.55;;;896.20;1331.20;;;;;;5079929;28;20023;-71
2023/07/11 10:32:27;;;;;;;11.57;6.68;;;896.30;1331.20;;;;;;5084347;28;20032;-73
2023/07/11 10:35:00;;;;;;;21.83;6.97;;;896.50;1331.20;;;;;;5088449;28;20097;-72
2023/07/11 10:37:40;;;;;;;14.93;7.00;;;896.60;1331.20;;;;;;5081238;28;20067;-72
2023/07/11 10:40:30;;;;;;;9.95;6.65;;;896.60;1305.60;;;;;;5081463;28;20032;-72
2023/07/11 10:43:13;;;;;;;11.45;6.93;;;896.80;1331.20;;;;;;5079842;28;20497;-75
2023/07/11 10:45:43;;;;;;;11.25;6.75;;;896.80;1305.60;;;;;;5080144;28;20025;-71
2023/07/11 10:48:25;;;;;;;11.15;6.57;;;896.90;1305.60;;;;;;5079537;28;20386;-74
2023/07/11 10:51:23;;;;;;;10.43;6.80;;;896.90;1331.20;;;;;;5082289;28;20379;-72
2023/07/11 10:53:59;;;;;;;9.73;5.82;;;921.70;1331.20;;;;;;5077107;28;20025;-75
2023/07/11 10:56:35;;;;;;;8.13;6.45;;;921.70;1331.20;;;;;;5086520;28;20024;-72
2023/07/11 10:59:02;;;;;;;11.18;7.00;;;921.80;1305.60;;;;;;5085309;28;20039;-73
2023/07/11 11:02:00;;;;;;;12.77;6.30;;;921.70;1305.60;;;;;;5086435;28;20032;-73
2023/07/11 11:04:54;;;;;;;10.05;6.72;;;921.70;1305.60;;;;;;5083489;28;20086;-74
2023/07/11 11:07:29;;;;;;;12.18;6.90;;;921.80;1305.60;;;;;;5079475;28;20067;-73
2023/07/11 11:10:04;;;;;;;9.23;6.07;;;922.00;1331.20;;;;;;5091195;28;20089;-71
2023/07/11 11:12:43;;;;;;;14.43;6.30;;;922.00;1305.60;;;;;;5081377;28;20093;-72
2023/07/11 11:15:27;;;;;;;12.38;5.97;;;922.00;1331.20;;;;;;5086948;28;20024;-71
2023/07/11 11:18:28;;;;;;;8.60;6.63;;;922.00;1331.20;;;;;;5082611;28;20060;-72
2023/07/11 11:21:00;;;;;;;10.25;6.20;;;922.20;1331.20;;;;;;5098615;28;20025;-72
2023/07/11 11:23:44;;;;;;;9.60;6.55;;;922.30;1305.60;;;;;;5084543;28;20031;-72
2023/07/11 11:26:35;;;;;;;10.07;6.28;;;922.50;1305.60;;;;;;5082008;28;20021;-71
2023/07/11 11:29:25;;;;;;;12.63;6.28;;;922.50;1305.60;;;;;;5087546;28;20486;-72
2023/07/11 11:32:23;;;;;;;11.85;6.35;;;922.30;1305.60;;;;;;5083485;28;20036;-72
2023/07/11 11:35:25;;;;;;;9.80;6.38;;;922.50;1280.00;;;;;;5052690;28;20057;-79
2023/07/11 11:38:11;;;;;;;10.13;6.82;;;922.50;1305.60;;;;;;5052720;28;20050;-71
2023/07/11 11:40:39;;;;;;;9.88;5.53;;;947.20;1254.40;;;;;;5052581;28;20494;-70
2023/07/11 11:43:11;;;;;;;13.57;6.40;;;947.20;1280.00;;;;;;5052448;28;20442;-71
2023/07/11 11:45:39;;;;;;;9.57;6.65;;;947.20;1228.80;;;;;;5052633;28;20048;-71
2023/07/11 11:48:06;;;;;;;10.57;6.55;;;947.20;1228.80;;;;;;5052647;28;20028;-71
2023/07/11 11:50:36;;;;;;;12.50;6.43;;;947.20;1254.40;;;;;;5052997;28;20107;-71
2023/07/11 11:53:24;;;;;;;9.98;6.30;;;947.20;1203.20;;;;;;5052433;28;20029;-71
2023/07/11 11:56:05;;;;;;;10.02;5.55;;;947.20;1228.80;;;;;;5046263;28;20033;-71
2023/07/11 11:58:34;;;;;;;10.02;6.63;;;947.40;1228.80;;;;;;5052216;28;20403;-72
2023/07/11 12:01:00;;;;;;;12.63;5.80;;;947.50;1177.60;;;;;;5050237;28;20474;-69
2023/07/11 12:03:32;;;;;;;10.43;6.35;;;947.50;1126.40;;;;;;5040861;28;20041;-70
2023/07/11 12:06:01;;;;;;;12.02;5.80;;;947.50;1177.60;;;;;;5051966;28;20128;-71
2023/07/11 12:08:29;;;;;;;14.10;6.50;;;947.60;1177.60;;;;;;5052085;28;20037;-72
2023/07/11 12:11:02;;;;;;;13.35;6.53;;;947.70;1126.40;;;;;;5059144;28;20036;-71
2023/07/11 12:13:30;;;;;;;10.07;6.60;;;947.80;1126.40;;;;;;5083426;28;20417;-72
2023/07/11 12:16:00;;;;;;;11.50;6.32;;;947.80;1100.80;;;;;;5083272;28;20032;-70
2023/07/11 12:18:26;;;;;;;7.45;5.75;;;947.80;1100.80;;;;;;5084643;28;20391;-71
2023/07/11 12:21:12;;;;;;;10.57;6.45;;;947.80;1126.40;;;;;;5084200;28;20051;-72
2023/07/11 12:23:42;;;;;;;8.00;6.30;;;947.90;1100.80;;;;;;5084800;28;20024;-72